Time;durP1;ratioP1;P1;durP2;ratioP2;P2;SDS_P1;SDS_P2;PMS_P1;PMS_P2;Temp;Humidity;BMP_temperature;BMP_pressure;BME280_temperature;BME280_humidity;BME280_pressure;Samples;Min_cycle;Max_cycle;Signal;HPM_P1;HPM_P2
2020/12/08 00:01:25;;;;;;;69.03;35.73;;;;;;;3.88;71.17;99462.33;2144069;80;28603;-64
2020/12/08 00:04:27;;;;;;;70.12;38.55;;;;;;;3.83;71.35;99462.95;2165312;79;31506;-64
2020/12/08 00:10:45;;;;;;;85.63;42.73;;;;;;;3.78;71.44;99456.50;2248393;78;27653;-63
2020/12/08 00:13:48;;;;;;;77.53;39.98;;;;;;;3.71;71.43;99455.44;2152794;81;27715;-63
2020/12/08 00:16:50;;;;;;;70.30;39.78;;;;;;;3.66;71.56;99458.23;2165798;79;28842;-63
2020/12/08 00:19:53;;;;;;;77.67;39.40;;;;;;;3.62;71.58;99473.84;2228414;79;31140;-62
2020/12/08 00:22:55;;;;;;;79.37;41.90;;;;;;;3.55;71.64;99465.69;2160892;79;33129;-63
2020/12/08 00:25:58;;;;;;;71.40;39.05;;;;;;;3.50;71.70;99465.38;2168157;79;29475;-63
2020/12/08 00:29:01;;;;;;;75.12;39.08;;;;;;;3.46;71.68;99472.16;2134855;81;27795;-63
2020/12/08 00:32:09;;;;;;;66.45;36.30;;;;;;;3.38;71.77;99475.06;2148711;81;28379;-63
2020/12/08 00:35:13;;;;;;;71.15;36.38;;;;;;;3.31;72.03;99477.06;2164727;80;32128;-64
2020/12/08 00:38:16;;;;;;;61.63;31.48;;;;;;;3.25;72.12;99472.42;2158816;80;33005;-64
2020/12/08 00:41:21;;;;;;;67.67;35.15;;;;;;;3.17;72.41;99470.88;2136117;81;29520;-64
2020/12/08 00:44:23;;;;;;;67.50;36.63;;;;;;;3.10;72.26;99487.89;2168504;80;28267;-63
2020/12/08 00:47:25;;;;;;;78.55;42.35;;;;;;;3.08;72.41;99495.02;2135756;81;28613;-64
2020/12/08 00:50:27;;;;;;;69.67;36.13;;;;;;;3.05;72.48;99492.45;2153731;80;31150;-64
2020/12/08 00:53:30;;;;;;;84.95;41.80;;;;;;;3.02;72.56;99489.46;2200931;80;33175;-62
2020/12/08 00:56:32;;;;;;;75.55;37.67;;;;;;;3.02;72.76;99487.26;2122022;81;30259;-64
2020/12/08 00:59:34;;;;;;;71.80;38.90;;;;;;;2.98;72.93;99492.27;2178720;80;27659;-63
2020/12/08 01:02:36;;;;;;;70.57;37.83;;;;;;;2.94;72.86;99490.62;2216590;80;28835;-63
2020/12/08 01:05:38;;;;;;;68.12;37.53;;;;;;;2.86;73.20;99489.53;2159924;80;31595;-64
2020/12/08 01:08:40;;;;;;;68.30;36.88;;;;;;;2.83;73.23;99487.83;2147706;80;33871;-64
2020/12/08 01:11:44;;;;;;;70.87;38.10;;;;;;;2.80;73.52;99479.13;2111704;82;28834;-64
2020/12/08 01:14:46;;;;;;;60.92;32.20;;;;;;;2.73;73.39;99479.31;2110082;82;27631;-64
2020/12/08 01:17:48;;;;;;;70.20;36.30;;;;;;;2.71;73.57;99477.64;2099660;82;28608;-64
2020/12/08 01:20:50;;;;;;;60.65;30.30;;;;;;;2.68;73.42;99485.66;2135630;82;31153;-64
2020/12/08 01:23:53;;;;;;;71.45;35.90;;;;;;;2.64;73.98;99487.54;2160167;81;32640;-63
2020/12/08 01:26:59;;;;;;;65.52;37.90;;;;;;;2.58;73.64;99481.98;2123887;82;28854;-63
2020/12/08 01:30:01;;;;;;;65.95;35.90;;;;;;;2.55;73.71;99475.46;2160829;82;27684;-63
2020/12/08 01:33:03;;;;;;;75.40;41.75;;;;;;;2.52;73.84;99476.02;2134552;82;29118;-64
2020/12/08 01:36:06;;;;;;;71.35;39.98;;;;;;;2.48;73.87;99466.44;2159858;82;31129;-61
2020/12/08 01:39:08;;;;;;;72.85;39.63;;;;;;;2.43;73.89;99467.44;2136830;82;33106;-64
2020/12/08 01:42:10;;;;;;;77.27;38.23;;;;;;;2.39;74.03;99458.33;2131921;82;29314;-64
2020/12/08 01:45:13;;;;;;;64.17;33.18;;;;;;;2.32;74.30;99460.76;2122742;83;27642;-65
2020/12/08 01:48:15;;;;;;;74.10;38.92;;;;;;;2.26;74.63;99460.45;2116088;82;28919;-62
2020/12/08 01:51:22;;;;;;;69.72;37.63;;;;;;;2.22;74.67;99471.58;2115358;82;31571;-64
2020/12/08 01:54:25;;;;;;;71.80;38.25;;;;;;;2.19;74.71;99469.02;2048982;85;33829;-64
2020/12/08 01:57:28;;;;;;;74.12;37.98;;;;;;;2.16;74.64;99465.14;2106386;82;29807;-65
2020/12/08 02:00:30;;;;;;;74.67;42.03;;;;;;;2.13;74.71;99463.93;2124653;82;27617;-61
2020/12/08 02:03:32;;;;;;;76.87;40.08;;;;;;;2.10;74.58;99469.30;2027437;84;28870;-63
2020/12/08 02:06:34;;;;;;;68.70;37.95;;;;;;;2.07;74.69;99472.87;2116515;82;31699;-64
2020/12/08 02:09:37;;;;;;;75.90;40.92;;;;;;;2.04;75.46;99479.59;2058270;82;32913;-62
2020/12/08 02:12:39;;;;;;;76.95;38.70;;;;;;;2.00;74.81;99472.65;2152740;81;28927;-62
2020/12/08 02:15:41;;;;;;;73.72;37.48;;;;;;;1.95;75.01;99472.78;2138532;83;27677;-64
2020/12/08 02:18:43;;;;;;;63.50;35.48;;;;;;;1.94;75.08;99463.56;2112409;81;29390;-63
2020/12/08 02:21:45;;;;;;;71.40;38.40;;;;;;;1.92;75.27;99466.69;2119016;81;31902;-63
2020/12/08 02:24:47;;;;;;;71.82;38.42;;;;;;;1.90;75.49;99460.62;2122735;82;33580;-62
2020/12/08 02:27:49;;;;;;;65.30;35.75;;;;;;;1.88;75.44;99457.14;2088508;83;28498;-62
2020/12/08 02:30:52;;;;;;;78.28;40.52;;;;;;;1.85;75.65;99467.32;2133506;81;27722;-61
2020/12/08 02:33:54;;;;;;;69.17;39.05;;;;;;;1.81;75.73;99471.83;2093986;83;28615;-61
2020/12/08 02:36:58;;;;;;;77.95;39.38;;;;;;;1.76;75.46;99470.22;2138467;83;31856;-61
2020/12/08 02:40:00;;;;;;;78.35;41.60;;;;;;;1.74;75.46;99473.36;2117146;81;33114;-61
2020/12/08 02:43:02;;;;;;;73.55;38.48;;;;;;;1.70;75.64;99473.91;2094170;81;28637;-61
2020/12/08 02:46:04;;;;;;;78.10;39.45;;;;;;;1.67;75.71;99473.51;2131131;81;27690;-62
2020/12/08 02:49:06;;;;;;;73.37;40.05;;;;;;;1.66;75.63;99476.20;2083180;82;28889;-62
2020/12/08 02:52:11;;;;;;;71.57;37.85;;;;;;;1.64;75.88;99468.77;2115266;82;30360;-62
2020/12/08 02:55:15;;;;;;;;;;;;;;;1.61;75.88;99461.81;2101030;81;33129;-60
2020/12/08 02:58:17;;;;;;;83.60;42.93;;;;;;;1.62;75.79;99467.51;2106213;83;29584;-62
2020/12/08 03:01:20;;;;;;;77.53;41.02;;;;;;;1.61;75.75;99463.12;2014422;85;27655;-62
2020/12/08 03:04:23;;;;;;;68.22;40.35;;;;;;;1.63;75.82;99473.63;2129150;81;28850;-62
2020/12/08 03:07:26;;;;;;;78.20;40.50;;;;;;;1.60;75.91;99475.03;2143214;81;31996;-62
2020/12/08 03:10:28;;;;;;;71.72;38.70;;;;;;;1.59;75.87;99479.89;2136253;81;33186;-62
2020/12/08 03:13:32;;;;;;;74.60;37.70;;;;;;;1.57;76.07;99473.81;2148104;81;28884;-62
2020/12/08 03:16:35;;;;;;;81.42;41.40;;;;;;;1.51;76.15;99482.73;2100523;81;27591;-62
2020/12/08 03:19:38;;;;;;;75.25;39.60;;;;;;;1.47;76.06;99486.38;2121321;81;29778;-62
2020/12/08 03:22:41;;;;;;;70.62;40.43;;;;;;;1.44;76.05;99482.50;2112441;81;30348;-62
2020/12/08 03:25:43;;;;;;;70.78;36.90;;;;;;;1.44;76.17;99478.53;2120228;81;33105;-62
2020/12/08 03:28:45;;;;;;;77.37;41.63;;;;;;;1.44;76.43;99478.53;2095627;83;28871;-62
2020/12/08 03:31:47;;;;;;;76.90;42.62;;;;;;;1.44;76.26;99483.81;2137082;81;27690;-62
2020/12/08 03:34:50;;;;;;;69.20;38.20;;;;;;;1.45;76.31;99488.19;2107349;83;28631;-62
2020/12/08 03:37:52;;;;;;;75.20;40.03;;;;;;;1.45;76.43;99490.83;2160480;81;31167;-62
2020/12/08 03:40:54;;;;;;;77.08;42.62;;;;;;;1.44;76.39;99481.17;2076342;83;33518;-62
2020/12/08 03:43:56;;;;;;;74.40;38.45;;;;;;;1.43;76.24;99481.61;2078746;84;29827;-61
2020/12/08 03:46:59;;;;;;;74.37;39.78;;;;;;;1.41;76.52;99486.06;2085179;81;27728;-61
2020/12/08 03:50:01;;;;;;;80.87;42.43;;;;;;;1.37;76.51;99476.51;2107808;81;28829;-63
2020/12/08 03:53:04;;;;;;;61.95;32.13;;;;;;;1.31;76.59;99480.17;2092221;84;31630;-61
2020/12/08 03:56:15;;;;;;;73.05;39.25;;;;;;;1.30;76.93;99477.55;2117505;82;33123;-61
2020/12/08 03:59:18;;;;;;;76.20;42.48;;;;;;;1.30;76.57;99478.88;2119123;82;28866;-61
2020/12/08 04:02:20;;;;;;;75.75;39.45;;;;;;;1.30;76.63;99481.52;2124144;81;27738;-62
2020/12/08 04:05:25;;;;;;;78.85;42.75;;;;;;;1.30;77.05;99487.67;2098429;81;29382;-61
2020/12/08 04:08:27;;;;;;;68.20;39.55;;;;;;;1.28;76.79;99488.59;2068495;83;30954;-61
2020/12/08 04:11:30;;;;;;;69.07;35.75;;;;;;;1.27;76.78;99490.81;2145861;82;33505;-61
2020/12/08 04:14:33;;;;;;;72.82;39.65;;;;;;;1.24;76.91;99486.96;2149304;81;28855;-61
2020/12/08 04:17:34;;;;;;;70.65;39.03;;;;;;;1.20;76.75;99483.51;2106019;81;27624;-61
2020/12/08 04:20:40;;;;;;;78.67;39.98;;;;;;;1.18;77.10;99481.36;2177832;81;29360;-61
2020/12/08 04:23:42;;;;;;;71.55;39.45;;;;;;;1.19;76.99;99483.09;2182739;80;31594;-61
2020/12/08 04:26:45;;;;;;;74.30;40.63;;;;;;;1.16;76.93;99478.77;2133726;81;34386;-61
2020/12/08 04:29:48;;;;;;;76.20;40.48;;;;;;;1.15;77.38;99475.72;2114851;81;29301;-61
2020/12/08 04:32:50;;;;;;;70.55;39.15;;;;;;;1.13;77.16;99476.20;2113283;81;27873;-62
2020/12/08 04:35:52;;;;;;;63.60;35.30;;;;;;;1.13;77.14;99491.17;2126698;83;28804;-61
2020/12/08 04:38:54;;;;;;;72.42;41.45;;;;;;;1.11;77.21;99483.75;2139911;81;31216;-61
2020/12/08 04:41:57;;;;;;;67.05;34.70;;;;;;;1.09;77.19;99491.67;2141298;81;33162;-61
2020/12/08 04:45:00;;;;;;;79.03;40.40;;;;;;;1.09;77.23;99497.42;2165058;81;29871;-60
2020/12/08 04:48:07;;;;;;;75.30;40.85;;;;;;;1.06;77.14;99493.09;2164837;81;27758;-61
2020/12/08 04:51:10;;;;;;;72.95;38.40;;;;;;;1.06;77.04;99504.50;2093306;81;28564;-61
2020/12/08 04:54:12;;;;;;;76.20;39.30;;;;;;;1.08;77.15;99491.73;2141285;81;31237;-60
2020/12/08 04:57:14;;;;;;;68.00;32.38;;;;;;;1.09;77.13;99488.19;2108635;81;33381;-62
2020/12/08 05:00:16;;;;;;;75.28;44.58;;;;;;;1.08;77.51;99499.64;2144476;81;29312;-61
2020/12/08 05:03:27;;;;;;;70.28;39.30;;;;;;;1.05;77.10;99497.48;2146452;82;27662;-61
2020/12/08 05:06:29;;;;;;;78.55;40.43;;;;;;;1.04;77.37;99502.34;2111537;81;28834;-62
2020/12/08 05:09:31;;;;;;;77.92;41.18;;;;;;;1.02;77.25;99510.73;2118543;80;32543;-62
2020/12/08 05:12:34;;;;;;;79.53;42.05;;;;;;;1.00;77.15;99503.78;2144688;81;33125;-61
2020/12/08 05:15:36;;;;;;;79.85;41.40;;;;;;;0.99;77.21;99509.95;2178966;80;30541;-61
2020/12/08 05:18:39;;;;;;;74.50;39.42;;;;;;;0.96;77.41;99506.95;2175908;80;27710;-61
2020/12/08 05:21:51;;;;;;;74.30;38.17;;;;;;;0.94;77.30;99508.75;2185114;80;28846;-62
2020/12/08 05:24:55;;;;;;;81.10;39.65;;;;;;;0.94;77.35;99512.70;2145197;80;32342;-61
2020/12/08 05:27:59;;;;;;;71.60;39.00;;;;;;;0.94;77.22;99511.81;2149855;80;33093;-61
2020/12/08 05:31:02;;;;;;;57.95;30.52;;;;;;;0.94;77.40;99526.33;2137703;81;36667;-61
2020/12/08 05:34:07;;;;;;;82.02;42.75;;;;;;;0.95;77.27;99535.97;2097167;81;27734;-62
2020/12/08 05:37:16;;;;;;;75.32;41.48;;;;;;;0.97;77.33;99537.69;2179673;80;28851;-62
2020/12/08 05:40:27;;;;;;;73.35;40.78;;;;;;;0.94;77.21;99540.83;2209142;80;32445;-62
2020/12/08 05:43:40;;;;;;;88.70;44.88;;;;;;;0.94;77.27;99557.53;2181841;80;33764;-62
2020/12/08 05:46:43;;;;;;;81.50;43.25;;;;;;;0.92;77.30;99563.29;2166370;80;29234;-63
2020/12/08 05:49:46;;;;;;;78.75;40.98;;;;;;;0.90;77.18;99556.74;2126705;81;27730;-62
2020/12/08 05:52:54;;;;;;;72.65;37.17;;;;;;;0.93;77.30;99555.80;2145164;80;28861;-62
2020/12/08 05:56:07;;;;;;;72.03;39.13;;;;;;;0.91;77.30;99554.49;2153562;80;30891;-62
2020/12/08 05:59:10;;;;;;;76.60;40.88;;;;;;;0.92;77.23;99554.06;2153603;81;34150;-63
2020/12/08 06:02:12;;;;;;;78.62;42.27;;;;;;;0.91;77.29;99548.36;2161755;80;30033;-62
2020/12/08 06:05:32;;;;;;;69.60;38.40;;;;;;;0.95;77.32;99558.39;2147001;81;27843;-62
2020/12/08 06:08:48;;;;;;;87.90;50.83;;;;;;;0.93;77.41;99571.62;2175314;80;28703;-62
2020/12/08 06:11:50;;;;;;;69.77;40.17;;;;;;;0.93;77.32;99559.75;2182127;80;31118;-63
2020/12/08 06:14:53;;;;;;;78.72;43.95;;;;;;;0.93;77.27;99572.05;2163166;80;33179;-63
2020/12/08 06:17:55;;;;;;;136.07;76.07;;;;;;;0.92;77.26;99565.92;2096835;81;29653;-62
2020/12/08 06:20:59;;;;;;;78.25;38.95;;;;;;;0.90;77.25;99566.41;2144694;81;28040;-62
2020/12/08 06:24:02;;;;;;;66.70;38.63;;;;;;;0.88;77.15;99569.09;2132187;80;28586;-62
2020/12/08 06:27:06;;;;;;;90.30;49.20;;;;;;;0.89;77.19;99574.78;2172406;79;31182;-64
2020/12/08 06:30:08;;;;;;;76.67;39.92;;;;;;;0.91;77.13;99566.83;2152233;80;33080;-62
2020/12/08 06:33:10;;;;;;;71.62;38.35;;;;;;;0.91;77.21;99578.23;2155998;80;29010;-62
2020/12/08 06:36:13;;;;;;;69.95;37.48;;;;;;;0.90;77.18;99586.19;2143898;80;27747;-63
2020/12/08 06:39:16;;;;;;;72.27;40.45;;;;;;;0.89;77.15;99582.69;2144806;81;28945;-64
2020/12/08 06:42:18;;;;;;;74.25;38.78;;;;;;;0.85;77.21;99581.02;2144916;81;31707;-64
2020/12/08 06:45:25;;;;;;;74.70;39.30;;;;;;;0.81;77.17;99587.25;2147867;80;33855;-64
2020/12/08 06:48:28;;;;;;;96.00;49.18;;;;;;;0.78;77.26;99585.13;2169073;81;29878;-63
2020/12/08 06:51:32;;;;;;;81.45;43.05;;;;;;;0.75;77.18;99587.36;2111433;82;28034;-63
2020/12/08 06:54:34;;;;;;;71.05;38.80;;;;;;;0.75;77.19;99593.52;2128758;80;28862;-62
2020/12/08 06:57:36;;;;;;;68.57;38.78;;;;;;;0.78;77.18;99600.95;2116631;80;31233;-63
2020/12/08 07:00:41;;;;;;;73.57;39.00;;;;;;;0.80;77.18;99599.16;2161316;82;33662;-63
2020/12/08 07:03:44;;;;;;;81.47;41.25;;;;;;;0.81;77.30;99603.53;2174599;80;29170;-65
2020/12/08 07:06:46;;;;;;;72.42;38.50;;;;;;;0.83;77.25;99609.64;2162242;80;27779;-65
2020/12/08 07:09:50;;;;;;;75.22;41.20;;;;;;;0.82;77.19;99604.80;2157600;80;28345;-64
2020/12/08 07:12:53;;;;;;;75.47;41.60;;;;;;;0.83;77.26;99621.51;2140487;81;30938;-64
2020/12/08 07:15:55;;;;;;;77.17;41.33;;;;;;;0.83;77.25;99604.37;2139379;80;33216;-67
2020/12/08 07:18:58;;;;;;;105.72;53.40;;;;;;;0.79;77.37;99604.01;2123505;81;28936;-64
2020/12/08 07:22:02;;;;;;;71.17;38.75;;;;;;;0.78;77.31;99611.50;2182858;80;27689;-63
2020/12/08 07:25:07;;;;;;;93.95;45.00;;;;;;;0.78;77.42;99616.30;2152420;80;28903;-63
2020/12/08 07:28:10;;;;;;;93.30;51.02;;;;;;;0.79;77.49;99627.27;2164010;81;31255;-65
2020/12/08 07:31:23;;;;;;;74.05;40.58;;;;;;;0.82;77.75;99630.31;2097367;82;33225;-65
2020/12/08 07:34:29;;;;;;;66.62;38.55;;;;;;;0.84;77.63;99633.77;2078200;83;29164;-61
2020/12/08 07:37:39;;;;;;;74.58;39.70;;;;;;;0.84;77.54;99622.78;2081183;83;27759;-62
2020/12/08 07:40:42;;;;;;;80.70;40.78;;;;;;;0.87;77.61;99633.70;2112152;82;28837;-62
2020/12/08 07:43:44;;;;;;;78.28;40.28;;;;;;;0.93;77.59;99652.05;2100500;83;31066;-62
2020/12/08 07:46:51;;;;;;;73.85;39.73;;;;;;;1.01;77.62;99655.84;2049593;84;34365;-62
2020/12/08 07:49:54;;;;;;;75.65;38.48;;;;;;;1.09;77.50;99664.45;2069790;83;28929;-65
2020/12/08 07:53:05;;;;;;;71.75;38.98;;;;;;;1.16;77.47;99661.26;2081464;83;27778;-64
2020/12/08 07:56:08;;;;;;;74.60;39.23;;;;;;;1.20;77.38;99649.28;2061780;83;28645;-63
2020/12/08 07:59:11;;;;;;;65.83;38.00;;;;;;;1.27;77.42;99651.77;2084227;84;31161;-64
2020/12/08 08:02:13;;;;;;;72.22;38.73;;;;;;;1.34;77.36;99651.59;2054447;83;34321;-64
2020/12/08 08:05:16;;;;;;;152.80;78.97;;;;;;;1.42;77.34;99659.81;2084382;82;29802;-64
2020/12/08 08:08:22;;;;;;;108.78;46.05;;;;;;;1.48;77.27;99664.49;2115178;83;27702;-63
2020/12/08 08:14:52;;;;;;;86.72;45.00;;;;;;;1.56;77.13;99657.72;2150802;82;27599;-63
2020/12/08 08:17:55;;;;;;;79.45;42.00;;;;;;;1.58;77.03;99651.95;2145792;81;33119;-64
2020/12/08 08:20:58;;;;;;;77.35;41.30;;;;;;;1.60;77.04;99652.79;2144600;82;29941;-63
2020/12/08 08:24:20;;;;;;;82.75;43.35;;;;;;;1.60;76.89;99663.35;2157922;82;27683;-64
2020/12/08 08:27:24;;;;;;;86.05;48.15;;;;;;;1.62;76.91;99665.51;2110118;82;29800;-66
2020/12/08 08:30:26;;;;;;;73.92;42.05;;;;;;;1.67;76.88;99660.97;2109482;82;31120;-64
2020/12/08 08:33:49;;;;;;;123.45;65.75;;;;;;;1.72;76.99;99662.64;2108927;82;33148;-64
2020/12/08 08:37:14;;;;;;;95.55;51.90;;;;;;;1.78;76.94;99667.32;2083086;85;29016;-64
2020/12/08 08:40:17;;;;;;;88.87;47.58;;;;;;;1.82;76.80;99660.21;2041222;86;27814;-63
2020/12/08 08:43:19;;;;;;;72.72;40.63;;;;;;;1.85;76.83;99653.52;2064393;84;28830;-63
2020/12/08 08:46:22;;;;;;;64.75;37.48;;;;;;;1.86;76.79;99665.81;2040180;85;31379;-64
2020/12/08 08:49:36;;;;;;;74.10;39.90;;;;;;;1.92;76.82;99663.47;2320034;75;37260;-63
2020/12/08 08:52:39;;;;;;;70.47;39.50;;;;;;;1.91;76.81;99670.54;2310381;77;27671;-62
2020/12/08 08:55:42;;;;;;;71.50;38.02;;;;;;;1.93;76.84;99659.48;2296848;77;28816;-63
2020/12/08 08:58:44;;;;;;;64.25;32.70;;;;;;;1.99;77.00;99669.03;2205135;78;31068;-64
2020/12/08 09:01:47;;;;;;;61.65;35.33;;;;;;;2.05;77.04;99671.97;2172754;80;34313;-62
2020/12/08 09:04:50;;;;;;;67.97;38.23;;;;;;;2.10;76.98;99669.62;2117523;81;28553;-63
2020/12/08 09:07:54;;;;;;;62.05;35.48;;;;;;;2.18;77.05;99666.78;2155114;80;27521;-61
2020/12/08 09:10:57;;;;;;;64.82;35.75;;;;;;;2.27;77.02;99669.21;2183649;78;28633;-62
2020/12/08 09:13:59;;;;;;;69.85;38.85;;;;;;;2.31;76.93;99674.42;2236567;78;31146;-63
2020/12/08 09:17:02;;;;;;;69.30;36.80;;;;;;;2.35;76.89;99675.63;2236583;78;33615;-62
2020/12/08 09:20:05;;;;;;;69.58;38.78;;;;;;;2.39;76.80;99683.89;2204210;78;28611;-62
2020/12/08 09:23:08;;;;;;;70.03;36.95;;;;;;;2.45;76.81;99684.18;2193991;79;27752;-62
2020/12/08 09:26:10;;;;;;;70.35;40.60;;;;;;;2.54;76.84;99686.56;2139318;81;28838;-61
2020/12/08 09:29:13;;;;;;;70.32;37.63;;;;;;;2.63;76.70;99676.20;2174234;81;32643;-62
2020/12/08 09:32:16;;;;;;;69.60;39.35;;;;;;;2.71;76.67;99672.91;2171472;80;33119;-62
2020/12/08 09:35:18;;;;;;;80.77;40.30;;;;;;;2.80;76.58;99656.34;2182344;80;28870;-61
2020/12/08 09:38:22;;;;;;;69.80;37.48;;;;;;;2.84;76.29;99658.01;2209216;79;27743;-62
2020/12/08 09:41:25;;;;;;;69.25;39.78;;;;;;;2.83;76.26;99667.70;2209413;79;29539;-61
2020/12/08 09:44:28;;;;;;;66.92;37.63;;;;;;;2.87;76.29;99663.22;2159290;79;30940;-62
2020/12/08 09:47:31;;;;;;;73.65;36.90;;;;;;;2.92;76.24;99665.73;2182618;79;34034;-61
2020/12/08 09:50:36;;;;;;;62.75;35.70;;;;;;;2.94;76.21;99671.38;2200302;79;28634;-62
2020/12/08 09:53:41;;;;;;;69.03;36.73;;;;;;;3.03;76.19;99672.89;2227790;79;27635;-62
2020/12/08 09:56:48;;;;;;;81.25;44.38;;;;;;;3.10;76.14;99673.14;2195708;79;28603;-62
2020/12/08 09:59:52;;;;;;;67.80;36.88;;;;;;;3.23;76.13;99676.74;2174568;79;31882;-61
2020/12/08 10:02:54;;;;;;;65.07;35.17;;;;;;;3.31;75.96;99670.78;2175655;79;33874;-61
2020/12/08 10:05:57;;;;;;;66.77;37.70;;;;;;;3.37;75.68;99663.95;2173843;79;28347;-62
2020/12/08 10:09:00;;;;;;;66.77;37.60;;;;;;;3.42;75.76;99670.42;2190831;80;27827;-62
2020/12/08 10:12:03;;;;;;;67.35;37.65;;;;;;;3.49;75.68;99669.34;2114645;80;28648;-62
2020/12/08 10:15:05;;;;;;;63.87;36.23;;;;;;;3.52;75.47;99673.22;2165012;79;31902;-61
2020/12/08 10:18:08;;;;;;;72.70;38.00;;;;;;;3.56;75.56;99666.89;2202184;79;35475;-62
2020/12/08 10:21:11;;;;;;;63.38;35.52;;;;;;;3.60;75.52;99664.56;2162272;81;28697;-61
2020/12/08 10:24:13;;;;;;;61.10;34.10;;;;;;;3.67;75.42;99660.41;2154403;81;27731;-61
2020/12/08 10:27:19;;;;;;;69.17;37.05;;;;;;;3.74;75.30;99659.28;2156240;81;31114;-61
2020/12/08 10:30:24;;;;;;;65.87;37.10;;;;;;;3.78;75.29;99652.98;2164209;81;31142;-61
2020/12/08 10:33:32;;;;;;;77.78;38.02;;;;;;;3.86;75.18;99660.23;2154929;81;32958;-62
2020/12/08 10:36:37;;;;;;;57.43;34.05;;;;;;;3.93;75.13;99664.88;2073520;85;28615;-63
2020/12/08 10:39:39;;;;;;;66.53;38.13;;;;;;;3.99;75.06;99665.13;2029161;85;27820;-62
2020/12/08 10:42:42;;;;;;;64.20;36.30;;;;;;;4.05;75.09;99667.12;2028793;85;28810;-61
2020/12/08 10:45:46;;;;;;;68.02;35.70;;;;;;;4.13;74.89;99666.86;2027831;85;30819;-62
2020/12/08 10:48:50;;;;;;;63.70;32.83;;;;;;;4.19;74.81;99675.95;2036695;85;32914;-62
2020/12/08 10:51:53;;;;;;;65.22;33.63;;;;;;;4.25;74.77;99674.39;2065031;85;28877;-61
2020/12/08 10:54:56;;;;;;;61.35;34.83;;;;;;;4.32;74.70;99669.75;2064916;83;28244;-61
2020/12/08 10:57:59;;;;;;;63.85;35.13;;;;;;;4.42;74.66;99670.30;2121962;82;28835;-61
2020/12/08 11:01:03;;;;;;;63.48;35.52;;;;;;;4.55;74.52;99665.45;2067481;84;31182;-62
2020/12/08 11:04:06;;;;;;;71.95;35.52;;;;;;;4.71;74.47;99669.77;2098003;82;33159;-62
2020/12/08 11:07:08;;;;;;;57.48;34.05;;;;;;;4.86;74.22;99665.67;2136504;81;29778;-62
2020/12/08 11:10:11;;;;;;;64.10;34.60;;;;;;;4.95;73.87;99665.35;2122776;82;27678;-62
2020/12/08 11:13:14;;;;;;;62.27;36.58;;;;;;;5.00;73.74;99663.84;2140146;80;28716;-62
2020/12/08 11:16:16;;;;;;;66.75;37.70;;;;;;;5.02;73.58;99667.31;2178209;80;31160;-63
2020/12/08 11:19:19;;;;;;;74.15;40.45;;;;;;;5.04;73.49;99663.27;2177891;81;33805;-62
2020/12/08 11:22:22;;;;;;;61.10;35.23;;;;;;;5.08;73.50;99660.91;2118978;81;28876;-62
2020/12/08 11:25:25;;;;;;;79.20;41.65;;;;;;;5.16;73.46;99659.70;2174628;81;27761;-62
2020/12/08 11:28:28;;;;;;;71.17;38.58;;;;;;;5.27;73.08;99659.30;2156846;79;29251;-62
2020/12/08 11:31:30;;;;;;;68.45;35.88;;;;;;;5.35;72.98;99653.69;2180305;79;31154;-62
2020/12/08 11:34:34;;;;;;;73.65;40.90;;;;;;;5.42;72.81;99663.13;2176129;80;33986;-63
2020/12/08 11:37:36;;;;;;;75.80;43.60;;;;;;;5.48;72.84;99658.04;2137257;80;28896;-62
2020/12/08 11:40:38;;;;;;;67.47;36.73;;;;;;;5.53;72.24;99661.87;2169064;81;27655;-62
2020/12/08 11:43:42;;;;;;;71.00;40.55;;;;;;;5.58;72.55;99657.22;2151990;81;29363;-62
2020/12/08 11:46:52;;;;;;;62.85;36.68;;;;;;;5.62;72.58;99669.47;2138093;81;32081;-62
2020/12/08 11:49:55;;;;;;;62.98;37.28;;;;;;;5.67;72.29;99673.27;2185107;81;32986;-62
2020/12/08 11:52:58;;;;;;;79.60;41.25;;;;;;;5.70;72.14;99665.17;2193531;80;28354;-62
2020/12/08 11:56:00;;;;;;;70.22;37.53;;;;;;;5.74;72.15;99658.81;2156973;80;27876;-63
2020/12/08 11:59:04;;;;;;;62.60;34.85;;;;;;;5.81;72.12;99664.75;2177727;80;28938;-63
2020/12/08 12:02:07;;;;;;;81.17;45.45;;;;;;;5.86;72.05;99658.31;2156379;81;30894;-62
2020/12/08 12:05:09;;;;;;;66.07;38.23;;;;;;;5.96;72.00;99657.48;2190974;81;33971;-62
2020/12/08 12:08:12;;;;;;;79.55;43.28;;;;;;;6.07;72.05;99662.39;2137079;81;28867;-63
2020/12/08 12:11:17;;;;;;;95.20;53.98;;;;;;;6.15;71.79;99656.75;2161653;81;27790;-62
2020/12/08 12:14:20;;;;;;;70.32;39.20;;;;;;;6.22;71.70;99647.12;2159698;81;29787;-62
2020/12/08 12:17:24;;;;;;;79.12;44.05;;;;;;;6.30;71.64;99650.78;2155992;81;31869;-62
2020/12/08 12:20:26;;;;;;;55.85;30.27;;;;;;;6.37;71.40;99647.39;2173200;81;32675;-61
2020/12/08 12:23:29;;;;;;;61.53;37.00;;;;;;;6.38;71.19;99653.97;2157874;81;28808;-62
2020/12/08 12:26:31;;;;;;;53.40;30.48;;;;;;;6.41;71.28;99649.00;2159144;81;27713;-62
2020/12/08 12:29:34;;;;;;;69.25;40.25;;;;;;;6.43;70.98;99652.46;2180645;81;28876;-62
2020/12/08 12:32:37;;;;;;;59.05;35.10;;;;;;;6.39;70.79;99645.05;2135205;81;30780;-63
2020/12/08 12:35:41;;;;;;;60.92;35.03;;;;;;;6.36;70.97;99644.33;2184300;80;33344;-63
2020/12/08 12:38:44;;;;;;;58.90;32.65;;;;;;;6.32;70.56;99655.58;2136251;81;28861;-63
2020/12/08 12:41:46;;;;;;;59.63;35.25;;;;;;;6.28;70.71;99655.30;2196585;80;27634;-64
2020/12/08 12:44:49;;;;;;;74.90;42.00;;;;;;;6.28;70.84;99654.45;2142824;81;30378;-64
2020/12/08 12:47:56;;;;;;;61.70;38.65;;;;;;;6.29;70.92;99658.84;2162617;80;31230;-59
2020/12/08 12:50:59;;;;;;;64.20;35.55;;;;;;;6.27;70.78;99656.70;2167461;81;34034;-60
2020/12/08 12:54:02;;;;;;;57.00;33.40;;;;;;;6.29;70.93;99657.52;2160426;79;28707;-60
2020/12/08 12:57:05;;;;;;;49.90;30.72;;;;;;;6.30;70.96;99655.22;2174289;79;27745;-59
2020/12/08 13:00:09;;;;;;;68.28;37.00;;;;;;;6.29;70.60;99653.05;2206371;79;28818;-60
2020/12/08 13:03:11;;;;;;;63.13;35.95;;;;;;;6.21;70.70;99653.81;2188839;81;31151;-61
2020/12/08 13:06:15;;;;;;;73.05;43.02;;;;;;;6.16;70.74;99663.80;2202005;80;33334;-61
2020/12/08 13:09:17;;;;;;;63.08;35.58;;;;;;;6.13;70.98;99658.13;2175244;81;28381;-60
2020/12/08 13:12:21;;;;;;;62.33;36.17;;;;;;;6.14;71.08;99657.68;2218183;79;28087;-60
2020/12/08 13:15:25;;;;;;;67.55;37.30;;;;;;;6.14;71.03;99660.34;2140380;79;28765;-60
2020/12/08 13:18:27;;;;;;;67.82;37.20;;;;;;;6.14;71.07;99662.52;2147334;79;31233;-59
2020/12/08 13:21:30;;;;;;;80.20;45.75;;;;;;;6.15;71.14;99662.92;2183650;81;33103;-60
2020/12/08 13:24:32;;;;;;;67.82;42.13;;;;;;;6.20;71.12;99654.77;2198764;79;29789;-61
2020/12/08 13:27:34;;;;;;;58.28;35.80;;;;;;;6.26;71.14;99654.97;2185309;79;27645;-59
2020/12/08 13:30:38;;;;;;;64.92;36.85;;;;;;;6.33;71.13;99655.98;2183801;79;28592;-62
2020/12/08 13:33:41;;;;;;;68.92;34.30;;;;;;;6.36;70.92;99654.52;2165869;79;31150;-62
2020/12/08 13:36:44;;;;;;;62.05;36.05;;;;;;;6.37;70.78;99660.22;2172984;79;33155;-59
2020/12/08 13:39:47;;;;;;;72.00;39.30;;;;;;;6.36;70.61;99651.86;2156739;79;29896;-59
2020/12/08 13:42:50;;;;;;;72.10;36.95;;;;;;;6.34;70.59;99656.83;2188742;79;27767;-59
2020/12/08 13:45:52;;;;;;;81.85;40.10;;;;;;;6.26;70.34;99665.13;2160704;80;28619;-61
2020/12/08 13:48:55;;;;;;;72.92;38.25;;;;;;;6.09;70.29;99661.87;2149266;80;30928;-60
2020/12/08 13:51:58;;;;;;;70.90;39.35;;;;;;;5.95;70.46;99653.56;2130641;80;34524;-59
2020/12/08 13:55:00;;;;;;;67.70;35.98;;;;;;;5.83;70.56;99657.10;2156103;80;28942;-60
2020/12/08 13:58:04;;;;;;;69.55;37.50;;;;;;;5.76;70.77;99662.28;2175189;79;27886;-68
2020/12/08 14:01:06;;;;;;;84.47;40.10;;;;;;;5.72;70.93;99658.02;2200821;79;28817;-60
2020/12/08 14:04:09;;;;;;;80.92;38.23;;;;;;;5.71;70.92;99661.59;2173341;79;30953;-64
2020/12/08 14:07:12;;;;;;;88.27;41.28;;;;;;;5.68;70.92;99657.72;2168981;80;32920;-62
2020/12/08 14:10:15;;;;;;;70.45;37.55;;;;;;;5.64;70.96;99662.30;2181603;80;30089;-60
2020/12/08 14:13:18;;;;;;;62.93;36.23;;;;;;;5.58;70.97;99665.19;2204351;78;27708;-63
2020/12/08 14:16:23;;;;;;;72.10;39.78;;;;;;;5.51;70.99;99655.27;2220800;78;29594;-61
2020/12/08 14:19:26;;;;;;;66.25;37.80;;;;;;;5.41;71.03;99663.20;2195555;80;30749;-61